Time;durP1;ratioP1;P1;durP2;ratioP2;P2;SDS_P1;SDS_P2;PMS_P1;PMS_P2;Temp;Humidity;BMP_temperature;BMP_pressure;BME280_temperature;BME280_humidity;BME280_pressure;Samples;Min_cycle;Max_cycle;Signal;HPM_P1;HPM_P2
2022/11/05 00:10:41;;;;;;;15.63;9.05;;;5.80;99.90;;;;;;4969634;28;20070;-93
2022/11/05 00:18:38;;;;;;;15.05;9.10;;;5.80;99.90;;;;;;4973333;28;20035;-91
2022/11/05 00:21:04;;;;;;;18.88;8.75;;;5.70;99.90;;;;;;4953998;28;20552;-92
2022/11/05 00:26:14;;;;;;;14.60;8.02;;;5.70;99.90;;;;;;4959520;28;20105;-93
2022/11/05 00:28:42;;;;;;;17.92;8.40;;;6.40;99.90;;;;;;4957080;28;20055;-93
2022/11/05 00:31:10;;;;;;;15.05;8.65;;;5.70;99.90;;;;;;4972029;28;20104;-93
2022/11/05 00:33:37;;;;;;;20.23;9.23;;;6.30;99.90;;;;;;4970748;28;20089;-92
2022/11/05 00:36:05;;;;;;;16.50;8.15;;;5.70;99.90;;;;;;4972789;28;20031;-94
2022/11/05 00:38:31;;;;;;;14.68;8.63;;;5.70;99.90;;;;;;4969412;28;20049;-93
2022/11/05 00:40:57;;;;;;;19.85;8.85;;;6.10;99.90;;;;;;4970773;28;20035;-94
2022/11/05 00:46:07;;;;;;;11.73;8.20;;;5.70;99.90;;;;;;4970959;28;20042;-94
2022/11/05 00:51:17;;;;;;;16.83;8.25;;;5.70;99.90;;;;;;4969657;28;20129;-93
2022/11/05 00:53:42;;;;;;;16.63;7.95;;;6.80;99.90;;;;;;4954272;28;20065;-93
2022/11/05 00:56:08;;;;;;;19.80;9.15;;;5.70;99.90;;;;;;4955647;28;20044;-93
2022/11/05 00:58:34;;;;;;;15.07;8.90;;;5.70;99.90;;;;;;4955565;28;20493;-93
2022/11/05 01:01:01;;;;;;;13.77;8.68;;;6.40;99.90;;;;;;4940929;28;20047;-93
2022/11/05 01:03:38;;;;;;;13.98;8.15;;;5.70;99.90;;;;;;4972220;28;20039;-94
2022/11/05 01:06:15;;;;;;;15.70;9.00;;;5.80;99.90;;;;;;4956801;28;20046;-94
2022/11/05 01:08:43;;;;;;;17.27;9.02;;;5.80;99.90;;;;;;4973627;28;20043;-94
2022/11/05 01:11:31;;;;;;;15.52;8.40;;;6.90;99.90;;;;;;4972167;28;20134;-94
2022/11/05 01:13:59;;;;;;;15.48;9.07;;;6.10;99.90;;;;;;4990149;28;20038;-93
2022/11/05 01:16:25;;;;;;;14.45;7.45;;;5.80;99.90;;;;;;4974932;28;20118;-93
2022/11/05 01:18:50;;;;;;;15.50;7.63;;;5.80;99.90;;;;;;4958577;28;20157;-94
2022/11/05 01:21:16;;;;;;;27.27;7.80;;;6.00;99.90;;;;;;4945498;28;21329;-93
2022/11/05 01:23:42;;;;;;;11.65;7.63;;;5.80;99.90;;;;;;4957503;28;20121;-94
2022/11/05 01:26:08;;;;;;;15.90;7.93;;;5.70;99.90;;;;;;4948345;28;20045;-93
2022/11/05 01:28:33;;;;;;;17.50;7.38;;;6.90;99.90;;;;;;4959275;28;20047;-93
2022/11/05 01:30:59;;;;;;;13.88;8.70;;;6.70;99.90;;;;;;4960280;28;20041;-94
2022/11/05 01:33:25;;;;;;;15.35;7.53;;;6.70;99.90;;;;;;4945021;28;20043;-93
2022/11/05 01:35:52;;;;;;;14.82;7.00;;;6.90;99.90;;;;;;4945464;28;20049;-93
2022/11/05 01:38:18;;;;;;;12.90;6.57;;;6.90;99.90;;;;;;4977011;28;20047;-94
2022/11/05 01:40:44;;;;;;;14.65;6.47;;;5.60;99.90;;;;;;4960706;28;20038;-94
2022/11/05 01:43:19;;;;;;;14.27;6.65;;;5.60;99.90;;;;;;4960233;28;20416;-93
2022/11/05 01:45:49;;;;;;;13.57;7.20;;;5.70;99.90;;;;;;4960910;28;20038;-94
2022/11/05 01:48:28;;;;;;;9.75;6.97;;;6.30;99.90;;;;;;4960228;28;20439;-94
2022/11/05 01:51:16;;;;;;;10.98;6.50;;;6.10;99.90;;;;;;4962858;28;20038;-93
2022/11/05 01:53:50;;;;;;;12.75;6.32;;;6.40;99.90;;;;;;4959508;28;20051;-94
2022/11/05 01:56:40;;;;;;;11.18;6.35;;;5.60;99.90;;;;;;4958921;28;20051;-92
2022/11/05 01:59:12;;;;;;;15.23;6.68;;;5.70;99.90;;;;;;4959218;28;20042;-94
2022/11/05 02:01:38;;;;;;;15.45;6.75;;;5.70;99.90;;;;;;4972468;28;20039;-94
2022/11/05 02:04:09;;;;;;;19.80;6.57;;;5.70;99.90;;;;;;4942607;28;20501;-94
2022/11/05 02:06:38;;;;;;;11.55;6.45;;;5.60;99.90;;;;;;4958785;28;20039;-94
2022/11/05 02:09:10;;;;;;;13.57;5.75;;;5.90;99.90;;;;;;4975820;28;20772;-94
2022/11/05 02:11:36;;;;;;;13.80;5.22;;;6.30;99.90;;;;;;4975091;28;20066;-95
2022/11/05 02:14:02;;;;;;;11.43;5.90;;;6.20;99.90;;;;;;4973106;28;20125;-95
2022/11/05 02:16:55;;;;;;;10.23;5.32;;;5.80;99.90;;;;;;4957857;28;20122;-93
2022/11/05 02:19:36;;;;;;;15.45;5.97;;;5.50;99.90;;;;;;4971734;28;20082;-93
2022/11/05 02:22:34;;;;;;;13.90;5.30;;;5.60;99.90;;;;;;4958739;28;20042;-94
2022/11/05 02:25:22;;;;;;;12.40;5.63;;;5.50;99.90;;;;;;4967489;28;20070;-93
2022/11/05 02:28:09;;;;;;;9.82;5.28;;;5.50;99.90;;;;;;4957285;28;20047;-94
2022/11/05 02:31:29;;;;;;;13.30;6.05;;;5.50;99.90;;;;;;4960379;28;20122;-94
2022/11/05 02:34:15;;;;;;;13.52;6.88;;;5.50;99.90;;;;;;4942415;28;20468;-94
2022/11/05 02:36:48;;;;;;;14.50;6.72;;;5.50;99.90;;;;;;4958552;28;20084;-93
2022/11/05 02:39:35;;;;;;;14.60;7.07;;;6.00;99.90;;;;;;4958170;28;20046;-93
2022/11/05 02:42:19;;;;;;;10.75;6.97;;;5.60;99.90;;;;;;4956952;28;20523;-92
2022/11/05 02:45:14;;;;;;;15.10;7.32;;;5.60;99.90;;;;;;4958282;28;20126;-93
2022/11/05 02:47:44;;;;;;;17.58;8.10;;;5.60;99.90;;;;;;4972725;28;20428;-94
2022/11/05 02:50:33;;;;;;;15.25;8.80;;;6.30;99.90;;;;;;4972486;28;20134;-94
2022/11/05 02:53:18;;;;;;;15.27;8.82;;;5.60;99.90;;;;;;4971686;28;20046;-93
2022/11/05 02:56:00;;;;;;;19.10;10.10;;;5.60;99.90;;;;;;4988063;28;20069;-93
2022/11/05 02:58:27;;;;;;;17.58;10.27;;;5.50;99.90;;;;;;4973677;28;20046;-93
2022/11/05 03:00:55;;;;;;;19.40;10.48;;;6.10;99.90;;;;;;4973694;28;20043;-94
2022/11/05 03:03:30;;;;;;;17.77;10.68;;;6.20;99.90;;;;;;4955943;28;20518;-93
2022/11/05 03:06:16;;;;;;;18.15;11.65;;;5.60;99.90;;;;;;4971781;28;20096;-94
2022/11/05 03:09:20;;;;;;;18.70;11.85;;;5.60;99.90;;;;;;4957050;28;20531;-93
2022/11/05 03:11:54;;;;;;;22.23;11.60;;;5.60;99.90;;;;;;4970059;28;20122;-93
2022/11/05 03:14:47;;;;;;;20.40;10.77;;;5.60;99.90;;;;;;4957281;28;20045;-93
2022/11/05 03:17:30;;;;;;;19.88;10.50;;;5.50;99.90;;;;;;4971694;28;20057;-94
2022/11/05 03:20:27;;;;;;;15.05;10.90;;;5.60;99.90;;;;;;4974435;28;20043;-93
2022/11/05 03:23:13;;;;;;;12.25;9.15;;;5.50;99.90;;;;;;4956792;28;20540;-93
2022/11/05 03:26:07;;;;;;;17.17;8.68;;;5.50;99.90;;;;;;4972754;28;20038;-92
2022/11/05 03:28:36;;;;;;;19.77;9.55;;;5.50;99.90;;;;;;4974475;28;20053;-93
2022/11/05 03:31:05;;;;;;;20.38;8.88;;;5.50;99.90;;;;;;4955715;28;20051;-92
2022/11/05 03:34:01;;;;;;;13.18;8.20;;;4.80;99.90;;;;;;4957233;28;20563;-94
2022/11/05 03:36:40;;;;;;;13.52;8.50;;;5.60;99.90;;;;;;4976372;28;20135;-93
2022/11/05 03:39:10;;;;;;;16.02;8.82;;;5.40;99.90;;;;;;4971380;28;20054;-93
2022/11/05 03:41:53;;;;;;;18.10;8.80;;;5.40;99.90;;;;;;4972979;28;21297;-94
2022/11/05 03:45:24;;;;;;;21.23;8.10;;;5.40;99.90;;;;;;4971957;28;20042;-93
2022/11/05 03:48:16;;;;;;;13.27;7.13;;;6.60;99.90;;;;;;4944550;28;20408;-94
2022/11/05 03:51:11;;;;;;;11.40;6.40;;;5.60;99.90;;;;;;4973270;28;20074;-93
2022/11/05 03:53:54;;;;;;;12.65;6.57;;;5.40;99.90;;;;;;4974406;28;20049;-93
2022/11/05 03:56:44;;;;;;;11.90;6.40;;;5.40;99.90;;;;;;4972245;28;20042;-93
2022/11/05 03:59:11;;;;;;;14.25;6.63;;;4.50;99.90;;;;;;4970957;28;20051;-93
2022/11/05 04:01:46;;;;;;;11.23;6.18;;;6.30;99.90;;;;;;4957128;28;20039;-94
2022/11/05 04:04:18;;;;;;;13.63;6.05;;;4.60;99.90;;;;;;4969790;28;20039;-92
2022/11/05 04:15:16;;;;;;;12.30;6.15;;;5.40;99.90;;;;;;4977294;28;19929;-93
2022/11/05 04:17:41;;;;;;;12.50;5.97;;;5.90;99.90;;;;;;4955534;28;20380;-94
2022/11/05 04:25:45;;;;;;;;;;;5.90;99.90;;;;;;4969948;28;20105;-94
2022/11/05 04:28:11;;;;;;;11.15;5.78;;;5.30;99.90;;;;;;4969153;28;19930;-93
2022/11/05 04:30:37;;;;;;;11.43;5.65;;;5.30;99.90;;;;;;4954394;28;20047;-92
2022/11/05 04:33:15;;;;;;;16.83;6.00;;;5.30;99.90;;;;;;4955964;28;20042;-92
2022/11/05 04:35:46;;;;;;;11.43;5.90;;;5.20;99.90;;;;;;4953567;28;20051;-92
2022/11/05 04:38:18;;;;;;;10.65;5.85;;;5.20;99.90;;;;;;4954527;28;20055;-93
2022/11/05 04:40:45;;;;;;;10.43;6.20;;;5.30;99.90;;;;;;4954761;28;20035;-93
2022/11/05 04:43:16;;;;;;;11.50;5.90;;;5.30;99.90;;;;;;4970932;28;20041;-92
2022/11/05 04:45:43;;;;;;;12.07;5.65;;;6.10;99.90;;;;;;4968346;28;20035;-92
2022/11/05 04:48:09;;;;;;;10.75;6.60;;;5.70;99.90;;;;;;4938333;28;20101;-93
2022/11/05 04:50:34;;;;;;;10.18;5.75;;;5.20;99.90;;;;;;4951932;28;20059;-93
2022/11/05 04:53:00;;;;;;;15.40;6.47;;;5.70;99.90;;;;;;4955631;28;20059;-93
2022/11/05 04:55:26;;;;;;;9.95;5.53;;;5.20;99.90;;;;;;4954272;28;20096;-92
2022/11/05 04:57:53;;;;;;;10.65;5.63;;;5.10;99.90;;;;;;4970696;28;20554;-92
2022/11/05 05:00:23;;;;;;;10.60;5.18;;;5.80;99.90;;;;;;4955091;28;20085;-94
2022/11/05 05:02:48;;;;;;;15.07;6.45;;;5.90;99.90;;;;;;4972630;28;20035;-92
2022/11/05 05:05:14;;;;;;;11.88;5.10;;;6.00;99.90;;;;;;4939315;28;20038;-92
2022/11/05 05:07:40;;;;;;;12.35;5.85;;;5.10;99.90;;;;;;4955663;28;20039;-93
2022/11/05 05:10:08;;;;;;;15.00;5.55;;;5.10;99.90;;;;;;4969309;28;20440;-92
2022/11/05 05:12:34;;;;;;;10.80;5.57;;;5.10;99.90;;;;;;4956531;28;20035;-93
2022/11/05 05:15:00;;;;;;;15.60;5.53;;;5.10;99.90;;;;;;4968050;28;20042;-92
2022/11/05 05:17:26;;;;;;;9.05;5.18;;;5.10;99.90;;;;;;4969263;28;20046;-92
2022/11/05 05:22:36;;;;;;;12.55;5.18;;;6.20;99.90;;;;;;4955805;28;20045;-92
2022/11/05 05:25:02;;;;;;;11.57;4.88;;;5.00;99.90;;;;;;4935279;28;20039;-92
2022/11/05 05:27:28;;;;;;;11.05;4.80;;;5.00;99.90;;;;;;4939038;28;20066;-92
2022/11/05 05:29:55;;;;;;;7.18;4.75;;;5.70;99.90;;;;;;4954524;28;20070;-92
2022/11/05 05:32:22;;;;;;;11.10;5.15;;;5.00;99.90;;;;;;4956851;28;20528;-91
2022/11/05 05:34:48;;;;;;;10.73;4.93;;;5.00;99.90;;;;;;4967209;28;20043;-92
2022/11/05 05:37:14;;;;;;;14.40;5.88;;;6.20;99.90;;;;;;4946492;28;20050;-92
2022/11/05 05:39:39;;;;;;;11.73;5.57;;;5.00;99.90;;;;;;4957010;28;20070;-91
2022/11/05 05:42:05;;;;;;;10.13;5.53;;;5.00;99.90;;;;;;4950712;28;20062;-92
2022/11/05 05:44:30;;;;;;;9.32;4.72;;;5.90;99.90;;;;;;4956149;28;20039;-92
2022/11/05 05:46:56;;;;;;;9.50;5.00;;;5.00;99.90;;;;;;4940900;28;20038;-91
2022/11/05 05:49:22;;;;;;;10.70;5.45;;;5.00;99.90;;;;;;4954418;28;20034;-91
2022/11/05 05:51:48;;;;;;;8.48;5.10;;;5.30;99.90;;;;;;4953895;28;20170;-91
2022/11/05 05:54:15;;;;;;;11.98;5.22;;;6.40;99.90;;;;;;4946150;28;20058;-92
2022/11/05 05:56:44;;;;;;;9.50;5.18;;;6.10;99.90;;;;;;4969349;28;20082;-92
2022/11/05 05:59:10;;;;;;;13.63;5.90;;;5.40;99.90;;;;;;4958531;28;20041;-92
2022/11/05 06:01:36;;;;;;;8.65;5.15;;;6.40;99.90;;;;;;4957402;28;20031;-93
2022/11/05 06:04:01;;;;;;;9.63;5.10;;;5.00;99.90;;;;;;4976112;28;20724;-93
2022/11/05 06:06:27;;;;;;;14.15;5.97;;;5.70;99.90;;;;;;4959283;28;20105;-92
2022/11/05 06:08:55;;;;;;;9.52;5.72;;;4.90;99.90;;;;;;4939620;28;20118;-93
2022/11/05 06:11:24;;;;;;;11.20;5.30;;;4.90;99.90;;;;;;4971923;28;20035;-93
2022/11/05 06:13:49;;;;;;;9.43;5.22;;;5.80;99.90;;;;;;4953030;28;20098;-92
2022/11/05 06:16:15;;;;;;;10.13;6.20;;;6.10;99.90;;;;;;4944591;28;20038;-93
2022/11/05 06:18:41;;;;;;;13.27;5.90;;;6.00;99.90;;;;;;4942449;28;20488;-90
2022/11/05 06:21:12;;;;;;;11.57;5.82;;;4.80;99.90;;;;;;4970069;28;20065;-92
2022/11/05 06:23:40;;;;;;;9.55;5.75;;;4.80;99.90;;;;;;4976950;28;20046;-92
2022/11/05 06:26:12;;;;;;;10.65;6.00;;;6.00;99.90;;;;;;4950795;28;20031;-92
2022/11/05 06:28:38;;;;;;;14.75;5.93;;;4.80;99.90;;;;;;4963739;28;20047;-92
2022/11/05 06:31:04;;;;;;;9.40;5.53;;;5.60;99.90;;;;;;4973163;28;20045;-93
2022/11/05 06:33:30;;;;;;;8.98;5.80;;;4.90;99.90;;;;;;4951106;28;20043;-92
2022/11/05 06:36:00;;;;;;;9.25;5.60;;;4.90;99.90;;;;;;4968065;28;20046;-92
2022/11/05 06:38:26;;;;;;;11.38;5.60;;;5.60;99.90;;;;;;4957677;28;20058;-91
2022/11/05 06:40:52;;;;;;;9.48;5.88;;;5.80;99.90;;;;;;4967748;28;20089;-90
2022/11/05 06:43:17;;;;;;;9.38;5.72;;;4.80;99.90;;;;;;4954150;28;20616;-91
2022/11/05 06:45:43;;;;;;;12.48;6.32;;;5.70;99.90;;;;;;4941268;28;20070;-91
2022/11/05 06:48:09;;;;;;;11.95;6.05;;;6.00;99.90;;;;;;4952804;28;20043;-89
2022/11/05 06:50:34;;;;;;;9.65;6.38;;;4.80;99.90;;;;;;4953176;28;20070;-91
2022/11/05 06:53:03;;;;;;;10.50;5.60;;;4.80;99.90;;;;;;4934607;28;20038;-90
2022/11/05 06:55:29;;;;;;;9.30;5.53;;;4.80;99.90;;;;;;4966249;28;20051;-90
2022/11/05 06:57:56;;;;;;;9.55;5.32;;;5.70;99.90;;;;;;4952193;28;20038;-91
2022/11/05 07:00:23;;;;;;;8.70;6.00;;;5.10;99.90;;;;;;4961107;28;20042;-89
2022/11/05 07:02:49;;;;;;;19.65;6.53;;;4.90;99.90;;;;;;4948306;28;20038;-89
2022/11/05 07:05:15;;;;;;;14.57;6.28;;;4.90;99.90;;;;;;4948305;28;20130;-87
2022/11/05 07:07:42;;;;;;;10.00;5.50;;;4.90;99.90;;;;;;4966403;28;20063;-87
2022/11/05 07:10:12;;;;;;;12.80;5.80;;;4.90;99.90;;;;;;4969596;28;20074;-88
2022/11/05 07:12:38;;;;;;;10.25;6.63;;;5.40;99.90;;;;;;4951071;28;20047;-88
2022/11/05 07:15:04;;;;;;;10.60;6.15;;;5.70;99.90;;;;;;4951887;28;20049;-87
2022/11/05 07:17:30;;;;;;;11.10;6.07;;;4.90;99.90;;;;;;4954271;28;20129;-89
2022/11/05 07:19:56;;;;;;;10.25;5.65;;;5.20;99.90;;;;;;4959800;28;20066;-88
2022/11/05 07:22:21;;;;;;;9.98;5.20;;;5.70;99.90;;;;;;4944152;28;20423;-89
2022/11/05 07:24:48;;;;;;;8.98;6.10;;;5.00;99.90;;;;;;4938442;28;20039;-88
2022/11/05 07:27:15;;;;;;;13.63;6.65;;;5.00;99.90;;;;;;4947797;28;20043;-88
2022/11/05 07:29:41;;;;;;;12.55;6.22;;;5.00;99.90;;;;;;4970541;28;20411;-88
2022/11/05 07:32:06;;;;;;;11.60;6.45;;;4.10;99.90;;;;;;4951577;28;20046;-87
2022/11/05 07:34:32;;;;;;;13.40;6.95;;;5.10;99.90;;;;;;4950812;28;20165;-89
2022/11/05 07:36:58;;;;;;;12.48;6.68;;;5.10;99.90;;;;;;4949615;28;20047;-89
2022/11/05 07:39:24;;;;;;;12.95;6.70;;;5.10;99.90;;;;;;4934208;28;20039;-88
2022/11/05 07:41:53;;;;;;;13.27;7.10;;;5.20;99.90;;;;;;4933094;28;20043;-89
2022/11/05 07:44:20;;;;;;;15.43;6.85;;;5.20;99.90;;;;;;4948427;28;20046;-88
2022/11/05 07:46:46;;;;;;;11.77;6.93;;;5.50;99.90;;;;;;4946516;28;20480;-87
2022/11/05 07:49:11;;;;;;;12.27;6.88;;;6.00;99.90;;;;;;4934749;28;20035;-88
2022/11/05 07:51:37;;;;;;;10.05;6.72;;;5.90;99.90;;;;;;4949239;28;20125;-87
2022/11/05 07:54:03;;;;;;;10.55;6.90;;;5.90;99.90;;;;;;4946422;28;20043;-87
2022/11/05 07:56:29;;;;;;;12.57;6.75;;;5.90;99.90;;;;;;4941538;28;20112;-89
2022/11/05 07:58:54;;;;;;;12.18;7.15;;;5.90;99.90;;;;;;4945562;28;20046;-88
2022/11/05 08:01:20;;;;;;;11.40;6.85;;;6.50;99.90;;;;;;4949955;28;20075;-89
2022/11/05 08:03:46;;;;;;;8.57;6.82;;;5.90;99.90;;;;;;4937069;28;20035;-87
2022/11/05 08:06:11;;;;;;;9.95;6.65;;;6.10;99.90;;;;;;4968270;28;20035;-88
2022/11/05 08:08:37;;;;;;;11.15;7.28;;;5.90;99.90;;;;;;4937789;28;20114;-89
2022/11/05 08:11:05;;;;;;;11.82;7.03;;;6.60;99.90;;;;;;4953747;28;20492;-88
2022/11/05 08:13:31;;;;;;;12.68;7.35;;;5.90;99.90;;;;;;4955532;28;20057;-92
2022/11/05 08:15:57;;;;;;;12.00;7.07;;;5.90;99.90;;;;;;4937342;28;20133;-90
2022/11/05 08:18:30;;;;;;;12.30;7.03;;;6.10;99.90;;;;;;4979709;28;20043;-92
2022/11/05 08:20:56;;;;;;;;;;;5.90;99.90;;;;;;4940599;28;20031;-93
2022/11/05 08:23:22;;;;;;;14.65;7.93;;;6.50;99.90;;;;;;4956191;28;19944;-92
2022/11/05 08:25:47;;;;;;;12.15;7.82;;;6.00;99.90;;;;;;4964283;28;20097;-91
2022/11/05 08:28:13;;;;;;;11.15;7.05;;;7.60;99.90;;;;;;4963745;28;20049;-91
2022/11/05 08:30:40;;;;;;;12.98;7.22;;;7.10;99.90;;;;;;4973430;28;20038;-92
2022/11/05 08:33:08;;;;;;;9.35;6.72;;;7.20;99.90;;;;;;4970945;28;20055;-90
2022/11/05 08:35:37;;;;;;;10.65;7.13;;;6.40;99.90;;;;;;4956954;28;20043;-91
2022/11/05 08:38:05;;;;;;;10.45;7.07;;;7.40;99.90;;;;;;4954406;28;20053;-92
2022/11/05 08:40:33;;;;;;;11.80;6.38;;;7.20;99.90;;;;;;4954372;28;20046;-93
2022/11/05 08:43:01;;;;;;;10.45;6.68;;;7.50;99.90;;;;;;4961685;28;20074;-92
2022/11/05 08:45:27;;;;;;;8.00;5.65;;;7.60;99.90;;;;;;4969590;28;20037;-92
2022/11/05 08:48:03;;;;;;;10.07;6.32;;;7.60;99.90;;;;;;4970440;28;20069;-90
2022/11/05 08:50:29;;;;;;;9.00;5.80;;;7.10;99.90;;;;;;4950087;28;20125;-91
2022/11/05 08:52:55;;;;;;;11.57;6.05;;;7.60;99.90;;;;;;4966262;28;20092;-91
2022/11/05 08:55:21;;;;;;;10.50;5.95;;;7.00;99.90;;;;;;4954990;28;20078;-92
2022/11/05 08:57:46;;;;;;;9.07;6.55;;;7.10;99.90;;;;;;4938927;28;20067;-91
2022/11/05 09:00:13;;;;;;;6.88;5.95;;;7.10;99.90;;;;;;4938707;28;20085;-91
2022/11/05 09:02:39;;;;;;;7.90;5.78;;;7.10;99.90;;;;;;4957504;28;20030;-91
2022/11/05 09:05:05;;;;;;;7.82;6.07;;;7.20;99.90;;;;;;4962166;28;20505;-92
2022/11/05 09:07:31;;;;;;;8.38;6.15;;;7.30;99.90;;;;;;4939514;28;20050;-93
2022/11/05 09:09:56;;;;;;;12.23;6.28;;;7.40;99.90;;;;;;4936001;28;20043;-91
2022/11/05 09:12:22;;;;;;;8.43;6.38;;;7.50;99.90;;;;;;4939062;28;20693;-91
2022/11/05 09:14:48;;;;;;;11.32;5.60;;;7.70;99.90;;;;;;4953390;28;20563;-92
2022/11/05 09:17:17;;;;;;;9.43;6.32;;;7.60;99.90;;;;;;4939162;28;20038;-91
2022/11/05 09:19:43;;;;;;;10.55;5.97;;;7.70;99.90;;;;;;4952998;28;20067;-93
2022/11/05 09:22:11;;;;;;;10.43;5.68;;;7.70;99.90;;;;;;4963115;28;20465;-92
2022/11/05 09:24:41;;;;;;;9.90;5.78;;;7.80;99.90;;;;;;4980220;28;20050;-90
2022/11/05 09:27:12;;;;;;;9.88;6.38;;;7.90;99.90;;;;;;4956865;28;20043;-92
2022/11/05 09:29:38;;;;;;;9.07;5.78;;;8.00;99.90;;;;;;4969939;28;20109;-90
2022/11/05 09:32:05;;;;;;;10.00;5.55;;;8.40;99.90;;;;;;4957975;28;20137;-92
2022/11/05 09:34:30;;;;;;;11.73;5.82;;;7.90;99.90;;;;;;4956979;28;20465;-92
2022/11/05 09:36:56;;;;;;;8.13;5.00;;;8.00;99.90;;;;;;4936041;28;20047;-93
2022/11/05 09:39:22;;;;;;;10.27;5.63;;;8.00;99.90;;;;;;4956065;28;20125;-92
2022/11/05 09:41:50;;;;;;;12.00;6.35;;;8.00;99.90;;;;;;4956291;28;20131;-92
2022/11/05 09:44:41;;;;;;;12.88;5.57;;;8.10;99.90;;;;;;4957999;28;20031;-92
2022/11/05 09:47:17;;;;;;;9.82;6.18;;;8.10;99.90;;;;;;4960885;28;20049;-92
2022/11/05 09:49:50;;;;;;;6.93;5.47;;;8.20;99.90;;;;;;4969812;28;20043;-92
2022/11/05 09:52:23;;;;;;;8.20;5.65;;;8.30;99.90;;;;;;4978440;28;20140;-93
2022/11/05 09:54:49;;;;;;;10.10;5.45;;;8.30;99.90;;;;;;4953545;28;20043;-92
2022/11/05 09:57:21;;;;;;;14.05;5.78;;;8.30;99.90;;;;;;4956745;28;20075;-91
2022/11/05 09:59:54;;;;;;;10.18;5.63;;;8.50;99.90;;;;;;4971975;28;20035;-91
2022/11/05 10:02:29;;;;;;;8.63;5.47;;;8.40;99.90;;;;;;4979347;28;20097;-93
2022/11/05 10:05:01;;;;;;;9.55;5.60;;;8.40;99.90;;;;;;4970584;28;20126;-92
2022/11/05 10:07:30;;;;;;;12.02;5.60;;;8.40;99.90;;;;;;4966704;28;20034;-93
2022/11/05 10:10:06;;;;;;;10.02;6.03;;;9.10;99.90;;;;;;4955528;28;20134;-92
2022/11/05 10:12:52;;;;;;;15.50;6.05;;;8.40;99.90;;;;;;4972838;28;20038;-93
2022/11/05 10:15:22;;;;;;;7.75;5.53;;;8.60;99.90;;;;;;4972954;28;20042;-93
2022/11/05 10:17:54;;;;;;;10.35;5.57;;;8.60;99.90;;;;;;4959087;28;20043;-91
2022/11/05 10:20:22;;;;;;;11.65;5.93;;;9.10;99.90;;;;;;4960806;28;20400;-93
2022/11/05 10:22:53;;;;;;;12.10;5.63;;;8.60;99.90;;;;;;4962641;28;20035;-93
2022/11/05 10:25:21;;;;;;;6.03;4.83;;;8.70;99.90;;;;;;4956340;28;20485;-93
2022/11/05 10:27:53;;;;;;;10.57;4.95;;;8.70;99.90;;;;;;4966947;28;20077;-94
2022/11/05 10:30:19;;;;;;;;;;;8.80;99.90;;;;;;4974622;28;20078;-93
2022/11/05 10:32:46;;;;;;;6.63;5.55;;;8.80;99.90;;;;;;4969964;28;20359;-93
2022/11/05 10:35:17;;;;;;;12.20;5.38;;;8.90;99.90;;;;;;4944909;28;20043;-93
2022/11/05 10:37:45;;;;;;;10.70;5.25;;;8.90;99.90;;;;;;4971767;28;20042;-92
2022/11/05 10:40:28;;;;;;;8.32;4.72;;;9.20;99.90;;;;;;4944133;28;20053;-92
2022/11/05 10:43:05;;;;;;;8.68;4.80;;;9.10;99.90;;;;;;4972445;28;20514;-92
2022/11/05 10:46:01;;;;;;;9.20;4.97;;;9.30;99.90;;;;;;4956212;28;20038;-92
2022/11/05 10:48:59;;;;;;;7.35;4.50;;;9.20;99.90;;;;;;4958644;28;20551;-93
2022/11/05 10:51:26;;;;;;;7.90;4.53;;;9.30;99.90;;;;;;4973081;28;20053;-93
2022/11/05 10:53:55;;;;;;;7.50;4.55;;;9.30;99.90;;;;;;4971225;28;20050;-92
2022/11/05 10:56:40;;;;;;;7.45;4.25;;;9.40;99.90;;;;;;4974848;28;20038;-93
2022/11/05 10:59:23;;;;;;;8.80;5.55;;;9.40;99.90;;;;;;4959136;28;20035;-92
2022/11/05 11:02:00;;;;;;;8.27;4.20;;;9.50;99.90;;;;;;4969367;28;20062;-92
2022/11/05 11:04:28;;;;;;;8.30;4.00;;;9.50;99.90;;;;;;4957062;28;20413;-92
2022/11/05 11:06:56;;;;;;;5.75;4.22;;;9.60;99.90;;;;;;4956522;28;20035;-92
2022/11/05 11:09:30;;;;;;;6.30;3.85;;;9.60;99.90;;;;;;4973245;28;20039;-90
2022/11/05 11:12:19;;;;;;;8.05;4.20;;;9.70;99.90;;;;;;4956132;28;20039;-91
2022/11/05 11:15:12;;;;;;;7.15;4.57;;;9.80;99.90;;;;;;4972058;28;20066;-91
2022/11/05 11:17:38;;;;;;;8.15;4.10;;;9.90;99.90;;;;;;4973041;28;20039;-93
2022/11/05 11:20:16;;;;;;;8.43;4.53;;;9.80;99.90;;;;;;4972290;28;20038;-92
2022/11/05 11:22:42;;;;;;;5.82;3.70;;;9.80;99.90;;;;;;4959109;28;20039;-92
2022/11/05 11:25:23;;;;;;;6.78;3.88;;;9.90;99.90;;;;;;4935287;28;20045;-92
2022/11/05 11:27:50;;;;;;;7.63;4.18;;;10.00;99.90;;;;;;4972979;28;20125;-92
2022/11/05 11:30:18;;;;;;;5.70;4.85;;;10.00;99.90;;;;;;4937469;28;20058;-91
2022/11/05 11:32:46;;;;;;;7.45;3.83;;;10.10;99.90;;;;;;4969902;28;20039;-91
2022/11/05 11:35:23;;;;;;;10.25;4.03;;;10.20;99.90;;;;;;4938869;28;20038;-92
2022/11/05 11:37:53;;;;;;;9.10;3.85;;;10.20;99.90;;;;;;4967100;28;20238;-91
2022/11/05 11:40:30;;;;;;;5.35;3.80;;;10.30;99.90;;;;;;4966612;28;20101;-91
2022/11/05 11:43:04;;;;;;;9.43;3.90;;;10.40;99.90;;;;;;4965904;28;20592;-92
2022/11/05 11:45:45;;;;;;;7.40;4.25;;;10.50;99.90;;;;;;4969064;28;20035;-91
2022/11/05 11:48:22;;;;;;;8.15;4.28;;;10.50;99.90;;;;;;4962492;28;20559;-91
2022/11/05 11:50:48;;;;;;;6.18;3.72;;;10.60;99.90;;;;;;4950320;28;20042;-91
2022/11/05 11:53:20;;;;;;;6.40;3.90;;;10.80;99.90;;;;;;4953803;28;20042;-91
2022/11/05 11:56:15;;;;;;;6.53;4.15;;;10.90;99.90;;;;;;4960272;28;20129;-91
2022/11/05 11:58:55;;;;;;;13.25;3.90;;;11.00;99.90;;;;;;4966263;28;20035;-91
2022/11/05 12:01:43;;;;;;;7.20;4.30;;;11.10;99.90;;;;;;4951680;28;20416;-90
2022/11/05 12:04:20;;;;;;;6.93;3.78;;;11.10;99.90;;;;;;4952664;28;20082;-90
2022/11/05 12:07:22;;;;;;;9.30;4.10;;;11.10;99.90;;;;;;4952368;28;20034;-91
2022/11/05 12:10:09;;;;;;;9.25;4.13;;;11.00;99.90;;;;;;4968894;28;20062;-91
2022/11/05 12:12:41;;;;;;;9.75;3.80;;;10.80;99.90;;;;;;4942600;28;20035;-91
2022/11/05 12:15:25;;;;;;;8.20;4.45;;;10.80;99.90;;;;;;4985955;28;20042;-91
2022/11/05 12:18:08;;;;;;;7.00;4.30;;;10.70;99.90;;;;;;4984762;28;20041;-91
2022/11/05 12:20:52;;;;;;;6.90;4.00;;;10.70;99.90;;;;;;4949519;28;20420;-91
2022/11/05 12:23:40;;;;;;;7.82;4.07;;;10.70;99.90;;;;;;4968580;28;20035;-91
2022/11/05 12:26:11;;;;;;;10.00;3.95;;;10.70;99.90;;;;;;4952423;28;20145;-90
2022/11/05 12:29:00;;;;;;;7.33;4.23;;;10.60;99.90;;;;;;4966772;28;20154;-91
2022/11/05 12:31:40;;;;;;;9.60;4.90;;;10.80;99.90;;;;;;4957851;28;20453;-90
2022/11/05 12:34:17;;;;;;;8.43;4.65;;;10.60;99.90;;;;;;4948235;28;20079;-91
2022/11/05 12:36:54;;;;;;;7.32;4.28;;;10.80;99.90;;;;;;4951101;28;20046;-90
2022/11/05 12:39:35;;;;;;;13.43;5.05;;;10.50;99.90;;;;;;4984845;28;20069;-90
2022/11/05 12:42:14;;;;;;;10.07;4.57;;;10.50;99.90;;;;;;4951294;28;20039;-90
2022/11/05 12:44:53;;;;;;;8.90;4.97;;;10.50;99.90;;;;;;4978418;28;20035;-91
2022/11/05 12:47:38;;;;;;;6.78;4.53;;;10.50;99.90;;;;;;4967928;28;20031;-91
2022/11/05 12:50:14;;;;;;;7.20;4.50;;;10.50;99.90;;;;;;4958280;28;20397;-91
2022/11/05 12:52:49;;;;;;;7.45;4.55;;;10.50;99.90;;;;;;4965422;28;20077;-91
2022/11/05 12:55:19;;;;;;;7.53;4.78;;;10.40;99.90;;;;;;4952601;28;20035;-91
2022/11/05 12:57:48;;;;;;;9.50;5.00;;;10.50;99.90;;;;;;4962055;28;20035;-91
2022/11/05 13:00:21;;;;;;;7.35;4.28;;;10.50;99.90;;;;;;4967644;28;20070;-91
2022/11/05 13:03:19;;;;;;;13.85;5.30;;;10.40;99.90;;;;;;4961203;28;20038;-90
2022/11/05 13:06:00;;;;;;;10.40;5.93;;;10.40;99.90;;;;;;4952945;28;20042;-91
2022/11/05 13:08:37;;;;;;;9.65;4.38;;;10.50;99.90;;;;;;4950051;28;20035;-91
2022/11/05 13:11:16;;;;;;;5.68;4.25;;;10.50;99.90;;;;;;4971411;28;20035;-91
2022/11/05 13:13:59;;;;;;;5.78;4.53;;;10.50;99.90;;;;;;4949663;28;20096;-90
2022/11/05 13:16:33;;;;;;;10.45;4.63;;;10.50;99.90;;;;;;4970762;28;20050;-91
2022/11/05 13:19:10;;;;;;;6.97;4.47;;;10.50;99.90;;;;;;4965525;28;20039;-90
2022/11/05 13:21:38;;;;;;;9.77;5.07;;;10.60;99.90;;;;;;4970116;28;20086;-90
2022/11/05 13:24:24;;;;;;;9.07;4.63;;;10.60;99.90;;;;;;4955830;28;20489;-90
2022/11/05 13:27:17;;;;;;;10.35;4.43;;;10.60;99.90;;;;;;4969556;28;20038;-90
2022/11/05 13:29:53;;;;;;;8.15;4.55;;;10.60;99.90;;;;;;4953215;28;20714;-91
2022/11/05 13:32:35;;;;;;;10.82;4.50;;;10.60;99.90;;;;;;4953397;28;20042;-90
2022/11/05 13:35:04;;;;;;;8.35;4.72;;;10.60;99.90;;;;;;4965603;28;20136;-88
2022/11/05 13:40:28;;;;;;;10.90;5.50;;;10.60;99.90;;;;;;4970872;28;20070;-89
2022/11/05 13:43:15;;;;;;;10.05;5.78;;;10.60;99.90;;;;;;4968258;28;20038;-89
2022/11/05 13:45:44;;;;;;;11.18;5.30;;;10.60;99.90;;;;;;4969124;28;20074;-89
2022/11/05 13:48:40;;;;;;;10.82;5.30;;;10.60;99.90;;;;;;4954992;28;20396;-89
2022/11/05 13:51:28;;;;;;;11.40;5.95;;;10.60;99.90;;;;;;4950767;28;20042;-89
2022/11/05 13:54:22;;;;;;;9.23;5.30;;;10.50;99.90;;;;;;4965957;28;20093;-89
2022/11/05 13:57:18;;;;;;;14.82;5.65;;;10.60;99.90;;;;;;4954270;28;20571;-89
2022/11/05 13:59:47;;;;;;;14.18;5.53;;;10.90;99.90;;;;;;4948630;28;20050;-90